Time;durP1;ratioP1;P1;durP2;ratioP2;P2;SDS_P1;SDS_P2;PMS_P1;PMS_P2;Temp;Humidity;BMP_temperature;BMP_pressure;BME280_temperature;BME280_humidity;BME280_pressure;Samples;Min_cycle;Max_cycle;Signal;HPM_P1;HPM_P2
2023/11/17 00:01:44;;;;;;;1.38;0.80;;;20.20;58.90;;;;;;5016948;28;20038;-66
2023/11/17 00:04:11;;;;;;;1.60;0.88;;;20.20;58.80;;;;;;5018287;28;20034;-66
2023/11/17 00:06:37;;;;;;;1.40;0.90;;;20.20;59.40;;;;;;5018160;28;20033;-66
2023/11/17 00:09:05;;;;;;;1.70;0.90;;;20.20;58.80;;;;;;5019772;28;20037;-66
2023/11/17 00:11:34;;;;;;;1.52;0.93;;;20.20;58.80;;;;;;5017884;28;20029;-67
2023/11/17 00:14:00;;;;;;;1.98;1.00;;;20.20;58.80;;;;;;5015880;28;20896;-65
2023/11/17 00:16:26;;;;;;;1.92;0.90;;;20.20;58.80;;;;;;5020154;28;20079;-66
2023/11/17 00:18:51;;;;;;;1.80;0.95;;;20.20;58.80;;;;;;5017047;28;20036;-65
2023/11/17 00:21:17;;;;;;;1.23;0.60;;;20.20;58.80;;;;;;5016732;28;20068;-65
2023/11/17 00:23:43;;;;;;;1.52;0.85;;;20.20;58.80;;;;;;5036346;28;20029;-67
2023/11/17 00:26:08;;;;;;;1.13;0.80;;;20.20;58.80;;;;;;5031886;28;20034;-66
2023/11/17 00:28:40;;;;;;;1.85;0.95;;;20.20;58.80;;;;;;5016202;28;20466;-66
2023/11/17 00:31:09;;;;;;;1.45;0.80;;;20.20;58.90;;;;;;5018579;28;20033;-66
2023/11/17 00:33:35;;;;;;;;;;;20.20;58.90;;;;;;5014045;28;20470;-66
2023/11/17 00:36:01;;;;;;;1.73;0.90;;;20.20;58.90;;;;;;5021408;28;19910;-66
2023/11/17 00:38:31;;;;;;;1.20;0.80;;;20.20;58.80;;;;;;5018351;28;20118;-66
2023/11/17 00:40:59;;;;;;;1.70;0.90;;;20.20;58.90;;;;;;5017597;28;20089;-66
2023/11/17 00:43:27;;;;;;;0.90;0.70;;;20.20;58.90;;;;;;5017271;28;20045;-66
2023/11/17 00:46:03;;;;;;;1.10;0.70;;;20.20;58.80;;;;;;5021854;28;20076;-66
2023/11/17 00:48:30;;;;;;;1.60;0.98;;;20.20;58.90;;;;;;5017178;28;20486;-66
2023/11/17 00:50:57;;;;;;;2.58;0.80;;;20.10;59.00;;;;;;5017617;28;20402;-67
2023/11/17 00:53:26;;;;;;;1.85;0.90;;;20.10;58.80;;;;;;5019747;28;20095;-66
2023/11/17 00:55:58;;;;;;;0.88;0.70;;;20.10;58.80;;;;;;5017780;28;20029;-66
2023/11/17 00:58:25;;;;;;;1.27;0.80;;;20.10;58.80;;;;;;5015007;28;20025;-66
2023/11/17 01:00:56;;;;;;;2.00;0.75;;;20.10;58.80;;;;;;5017958;28;20482;-66
2023/11/17 01:03:22;;;;;;;2.53;0.70;;;20.10;58.80;;;;;;5017955;28;20590;-66
2023/11/17 01:05:48;;;;;;;1.80;0.90;;;20.10;58.70;;;;;;5021608;28;20033;-67
2023/11/17 01:08:14;;;;;;;1.35;0.70;;;20.10;58.70;;;;;;5022216;28;20375;-66
2023/11/17 01:10:39;;;;;;;0.85;0.70;;;20.10;58.70;;;;;;5022452;28;20111;-66
2023/11/17 01:13:06;;;;;;;2.17;1.10;;;20.10;58.70;;;;;;5018403;28;20047;-67
2023/11/17 01:15:34;;;;;;;1.30;0.80;;;20.10;58.70;;;;;;5021419;28;20137;-66
2023/11/17 01:18:00;;;;;;;1.23;0.80;;;20.10;58.70;;;;;;5021779;28;20405;-66
2023/11/17 01:20:26;;;;;;;1.58;0.95;;;20.10;58.70;;;;;;5020855;28;20060;-66
2023/11/17 01:22:52;;;;;;;1.00;0.70;;;20.10;58.70;;;;;;5019294;28;20084;-67
2023/11/17 01:25:17;;;;;;;0.85;0.70;;;20.10;58.70;;;;;;5020689;28;20030;-66
2023/11/17 01:27:43;;;;;;;1.10;0.70;;;20.10;58.70;;;;;;5018833;28;20022;-66
2023/11/17 01:30:09;;;;;;;0.85;0.60;;;20.10;58.70;;;;;;5023660;28;20397;-66
2023/11/17 01:32:34;;;;;;;1.38;0.80;;;20.10;58.70;;;;;;5020465;28;20455;-66
2023/11/17 01:35:00;;;;;;;1.10;0.73;;;20.10;58.70;;;;;;5020394;28;20108;-66
2023/11/17 01:37:26;;;;;;;0.70;0.65;;;20.10;58.70;;;;;;5021838;28;20030;-65
2023/11/17 01:39:51;;;;;;;0.80;0.60;;;20.10;58.70;;;;;;5021617;28;20396;-65
2023/11/17 01:42:17;;;;;;;1.35;0.82;;;20.10;58.70;;;;;;5020459;28;20033;-65
2023/11/17 01:44:43;;;;;;;0.75;0.52;;;20.10;59.20;;;;;;5019146;28;20037;-65
2023/11/17 01:47:10;;;;;;;1.35;0.90;;;20.10;58.60;;;;;;5019747;28;20021;-66
2023/11/17 01:49:36;;;;;;;1.05;0.80;;;20.10;58.60;;;;;;5021620;28;20033;-65
2023/11/17 01:52:04;;;;;;;1.05;0.63;;;20.10;58.60;;;;;;5021492;28;20512;-65
2023/11/17 01:54:32;;;;;;;1.42;0.90;;;20.10;58.70;;;;;;5034440;28;20029;-64
2023/11/17 01:56:58;;;;;;;1.35;0.80;;;20.10;58.60;;;;;;5019874;28;20060;-66
2023/11/17 01:59:24;;;;;;;0.90;0.70;;;20.10;58.60;;;;;;5017244;28;20363;-65
2023/11/17 02:01:50;;;;;;;1.98;0.80;;;20.00;58.60;;;;;;5021171;28;20100;-66
2023/11/17 02:04:17;;;;;;;0.98;0.68;;;20.00;58.60;;;;;;5020477;28;20030;-65
2023/11/17 02:07:05;;;;;;;1.08;0.90;;;20.00;58.60;;;;;;5020768;28;20497;-65
2023/11/17 02:09:36;;;;;;;1.63;0.88;;;20.00;58.60;;;;;;5021859;28;20504;-65
2023/11/17 02:12:10;;;;;;;0.95;0.65;;;20.00;58.60;;;;;;5019681;28;20110;-65
2023/11/17 02:14:39;;;;;;;0.90;0.70;;;20.00;58.60;;;;;;5019877;28;20114;-64
2023/11/17 02:17:07;;;;;;;1.15;0.82;;;20.00;58.60;;;;;;5020310;28;20381;-65
2023/11/17 02:19:42;;;;;;;1.05;0.63;;;20.00;58.60;;;;;;5021093;28;20025;-65
2023/11/17 02:22:21;;;;;;;1.02;0.70;;;20.00;58.60;;;;;;5017407;28;20048;-66
2023/11/17 02:25:12;;;;;;;1.87;0.80;;;20.00;58.60;;;;;;5019536;28;20107;-65
2023/11/17 02:28:10;;;;;;;1.08;0.60;;;20.00;58.60;;;;;;5021166;28;20749;-65
2023/11/17 02:30:39;;;;;;;0.70;0.60;;;20.00;58.60;;;;;;5019883;28;20037;-65
2023/11/17 02:33:08;;;;;;;0.60;0.60;;;20.00;58.60;;;;;;5020475;28;20025;-65
2023/11/17 02:35:34;;;;;;;0.70;0.60;;;20.00;58.60;;;;;;5020643;28;20036;-67
2023/11/17 02:38:02;;;;;;;0.98;0.70;;;20.00;58.60;;;;;;5019230;28;20036;-67
2023/11/17 02:40:31;;;;;;;1.35;0.70;;;20.00;58.60;;;;;;5019966;28;20546;-66
2023/11/17 02:42:58;;;;;;;0.77;0.70;;;20.00;58.60;;;;;;5019199;28;20461;-66
2023/11/17 02:45:25;;;;;;;0.95;0.50;;;20.00;58.60;;;;;;5020897;28;20060;-69
2023/11/17 02:47:56;;;;;;;0.93;0.68;;;19.90;58.50;;;;;;5022066;28;20026;-69
2023/11/17 02:50:31;;;;;;;1.20;0.60;;;20.00;58.50;;;;;;5019127;28;20386;-69
2023/11/17 02:53:18;;;;;;;1.30;0.73;;;19.90;58.50;;;;;;5021110;28;20018;-70
2023/11/17 02:55:45;;;;;;;0.80;0.70;;;19.90;58.50;;;;;;5020267;28;20077;-69
2023/11/17 02:58:12;;;;;;;1.17;0.70;;;19.90;58.50;;;;;;5017327;28;20033;-69
2023/11/17 03:00:47;;;;;;;1.13;0.70;;;19.90;58.50;;;;;;5034943;28;20029;-69
2023/11/17 03:03:13;;;;;;;1.10;0.70;;;19.90;58.50;;;;;;5017893;28;20359;-70
2023/11/17 03:05:39;;;;;;;0.60;0.50;;;19.90;58.50;;;;;;5016663;28;20026;-69
2023/11/17 03:08:07;;;;;;;0.70;0.57;;;19.90;58.50;;;;;;5018786;28;20116;-70
2023/11/17 03:10:34;;;;;;;1.02;0.68;;;19.90;58.50;;;;;;5018070;28;20126;-69
2023/11/17 03:13:00;;;;;;;0.93;0.70;;;19.90;58.50;;;;;;5017007;28;20108;-70
2023/11/17 03:15:28;;;;;;;0.60;0.60;;;19.90;58.50;;;;;;5016249;28;20108;-70
2023/11/17 03:17:53;;;;;;;1.15;0.68;;;19.90;58.50;;;;;;5017033;28;20076;-70
2023/11/17 03:20:19;;;;;;;0.75;0.60;;;19.90;58.40;;;;;;5016670;28;20034;-70
2023/11/17 03:22:45;;;;;;;1.00;0.63;;;19.90;58.40;;;;;;5018793;28;20128;-69
2023/11/17 03:25:17;;;;;;;0.63;0.60;;;19.90;58.40;;;;;;5019232;28;20037;-70
2023/11/17 03:27:50;;;;;;;1.00;0.70;;;19.90;58.50;;;;;;5016231;28;20144;-70
2023/11/17 03:30:17;;;;;;;0.90;0.60;;;19.90;58.40;;;;;;5013426;28;20137;-69
2023/11/17 03:32:46;;;;;;;1.10;0.80;;;19.90;58.50;;;;;;5016804;28;20025;-70
2023/11/17 03:35:12;;;;;;;0.80;0.60;;;19.90;58.40;;;;;;5016337;28;20105;-69
2023/11/17 03:37:38;;;;;;;1.02;0.60;;;19.90;58.50;;;;;;5018087;28;20120;-70
2023/11/17 03:40:11;;;;;;;0.90;0.60;;;19.90;58.50;;;;;;5018081;28;20028;-70
2023/11/17 03:42:37;;;;;;;0.73;0.60;;;19.90;58.50;;;;;;5018695;28;20122;-70
2023/11/17 03:45:07;;;;;;;0.60;0.50;;;19.90;58.50;;;;;;5017268;28;20441;-65
2023/11/17 03:47:37;;;;;;;0.82;0.60;;;19.80;58.40;;;;;;5013752;28;20026;-65
2023/11/17 03:50:06;;;;;;;0.73;0.70;;;19.80;58.50;;;;;;5013430;28;20049;-66
2023/11/17 03:52:32;;;;;;;0.50;0.50;;;19.80;58.50;;;;;;5017123;28;20029;-65
2023/11/17 03:55:00;;;;;;;0.65;0.60;;;19.80;58.50;;;;;;5016606;28;20351;-67
2023/11/17 03:57:26;;;;;;;1.33;0.60;;;19.80;58.50;;;;;;5018446;28;20033;-65
2023/11/17 03:59:53;;;;;;;0.50;0.50;;;19.80;58.50;;;;;;5032031;28;20164;-66
2023/11/17 04:02:22;;;;;;;0.90;0.60;;;19.80;58.50;;;;;;5019909;28;20556;-65
2023/11/17 04:04:51;;;;;;;0.50;0.50;;;19.80;58.50;;;;;;5017752;28;20028;-65
2023/11/17 04:07:16;;;;;;;0.55;0.50;;;19.80;58.50;;;;;;5017880;28;20056;-65
2023/11/17 04:09:42;;;;;;;0.60;0.60;;;19.80;58.60;;;;;;5019462;28;20022;-65
2023/11/17 04:12:09;;;;;;;0.50;0.50;;;19.80;58.70;;;;;;5019264;28;20026;-65
2023/11/17 04:14:40;;;;;;;0.80;0.50;;;19.80;58.80;;;;;;5015673;28;20848;-65
2023/11/17 04:17:06;;;;;;;0.60;0.43;;;19.80;58.90;;;;;;5017869;28;20064;-66
2023/11/17 04:19:32;;;;;;;0.85;0.50;;;19.80;59.00;;;;;;5018846;28;20028;-66
2023/11/17 04:21:58;;;;;;;0.73;0.50;;;19.80;59.00;;;;;;5019839;28;20025;-65
2023/11/17 04:24:24;;;;;;;0.55;0.52;;;19.80;59.10;;;;;;5018354;28;20116;-65
2023/11/17 04:26:51;;;;;;;0.80;0.50;;;19.80;59.20;;;;;;5017926;28;20101;-66
2023/11/17 04:29:16;;;;;;;1.02;0.65;;;19.80;59.30;;;;;;5017960;28;20075;-65
2023/11/17 04:31:42;;;;;;;0.50;0.50;;;19.80;59.80;;;;;;5019083;28;20969;-65
2023/11/17 04:34:09;;;;;;;0.95;0.60;;;19.80;59.30;;;;;;5018112;28;20030;-65
2023/11/17 04:36:37;;;;;;;0.50;0.50;;;19.80;59.30;;;;;;5032381;28;20390;-65
2023/11/17 04:39:11;;;;;;;0.98;0.60;;;19.80;59.20;;;;;;5018930;28;20116;-65
2023/11/17 04:41:37;;;;;;;0.40;0.40;;;19.80;59.20;;;;;;5006245;28;20057;-65
2023/11/17 04:44:03;;;;;;;0.55;0.50;;;19.80;59.20;;;;;;5023557;28;20505;-65
2023/11/17 04:46:29;;;;;;;0.65;0.50;;;19.80;59.20;;;;;;5022505;28;20437;-65
2023/11/17 04:48:55;;;;;;;0.60;0.60;;;19.80;59.20;;;;;;5025680;28;20030;-65
2023/11/17 04:51:21;;;;;;;0.50;0.50;;;19.80;59.10;;;;;;5024475;28;20112;-65
2023/11/17 04:53:47;;;;;;;0.82;0.50;;;19.80;59.20;;;;;;5025928;28;20362;-66
2023/11/17 04:56:13;;;;;;;0.60;0.50;;;19.80;59.20;;;;;;5026243;28;20033;-70
2023/11/17 04:58:42;;;;;;;1.42;0.75;;;19.80;59.20;;;;;;5024542;28;20018;-70
2023/11/17 05:01:08;;;;;;;0.50;0.50;;;19.80;59.20;;;;;;5022003;28;20034;-70
2023/11/17 05:03:35;;;;;;;0.85;0.60;;;19.70;59.10;;;;;;5025376;28;20096;-70
2023/11/17 05:06:01;;;;;;;0.73;0.45;;;19.70;59.20;;;;;;5024880;28;20083;-65
2023/11/17 05:08:28;;;;;;;0.90;0.40;;;19.70;59.20;;;;;;5023953;28;20045;-66
2023/11/17 05:10:55;;;;;;;0.43;0.40;;;19.70;59.20;;;;;;5021364;28;20022;-66
2023/11/17 05:13:22;;;;;;;1.08;0.50;;;19.80;59.20;;;;;;5025398;28;20033;-66
2023/11/17 05:15:47;;;;;;;0.60;0.55;;;19.80;59.30;;;;;;5021092;28;20017;-66
2023/11/17 05:18:13;;;;;;;0.60;0.50;;;19.70;59.20;;;;;;5025234;28;20030;-66
2023/11/17 05:20:39;;;;;;;0.63;0.50;;;19.70;59.20;;;;;;5005238;28;20106;-65
2023/11/17 05:23:07;;;;;;;0.77;0.50;;;19.70;59.20;;;;;;5024222;28;20136;-65
2023/11/17 05:25:33;;;;;;;0.50;0.50;;;19.70;59.20;;;;;;5022959;28;20030;-65
2023/11/17 05:27:58;;;;;;;0.57;0.45;;;19.70;59.20;;;;;;5024359;28;20022;-66
2023/11/17 05:30:25;;;;;;;0.50;0.50;;;19.70;59.30;;;;;;5023655;28;20568;-65
2023/11/17 05:32:51;;;;;;;0.50;0.50;;;19.70;59.30;;;;;;5023068;28;20482;-65
2023/11/17 05:35:16;;;;;;;0.50;0.50;;;19.70;59.20;;;;;;5019367;28;20057;-66
2023/11/17 05:37:42;;;;;;;0.57;0.50;;;19.70;59.30;;;;;;5007060;28;20393;-66
2023/11/17 05:40:08;;;;;;;0.88;0.50;;;19.70;59.20;;;;;;5039035;28;20123;-65
2023/11/17 05:42:34;;;;;;;0.50;0.50;;;19.70;59.20;;;;;;5024376;28;20024;-65
2023/11/17 05:45:00;;;;;;;0.77;0.50;;;19.70;59.30;;;;;;5021716;28;20118;-66
2023/11/17 05:47:26;;;;;;;0.52;0.50;;;19.70;59.30;;;;;;5024276;28;20033;-65
2023/11/17 05:49:52;;;;;;;0.50;0.50;;;19.70;59.30;;;;;;5025158;28;20037;-65
2023/11/17 05:52:18;;;;;;;0.50;0.50;;;19.70;59.30;;;;;;5019161;28;20021;-65
2023/11/17 05:54:46;;;;;;;0.75;0.50;;;19.70;59.80;;;;;;5022612;28;20021;-66
2023/11/17 05:57:19;;;;;;;0.60;0.50;;;19.70;59.30;;;;;;5021590;28;20057;-65
2023/11/17 05:59:48;;;;;;;0.55;0.43;;;19.70;59.30;;;;;;5018337;28;20010;-65
2023/11/17 06:02:14;;;;;;;0.47;0.47;;;19.70;59.30;;;;;;5019451;28;20505;-65
2023/11/17 06:04:41;;;;;;;0.68;0.60;;;19.70;59.30;;;;;;5019676;28;20030;-70
2023/11/17 06:07:08;;;;;;;0.47;0.38;;;19.70;59.30;;;;;;5020232;28;20552;-70
2023/11/17 06:09:35;;;;;;;0.55;0.40;;;19.70;59.40;;;;;;5021022;28;20508;-70
2023/11/17 06:12:01;;;;;;;1.35;0.50;;;19.70;59.60;;;;;;5021808;28;20099;-70
2023/11/17 06:14:27;;;;;;;1.10;0.45;;;19.70;59.70;;;;;;5020885;28;20030;-67
2023/11/17 06:16:53;;;;;;;0.85;0.60;;;19.70;59.80;;;;;;5018756;28;20025;-67
2023/11/17 06:19:20;;;;;;;0.85;0.40;;;19.70;60.00;;;;;;5020977;28;20021;-66
2023/11/17 06:21:46;;;;;;;1.05;0.93;;;19.70;60.10;;;;;;5020538;28;20028;-66
2023/11/17 06:24:14;;;;;;;0.80;0.50;;;19.70;60.10;;;;;;5020317;28;20634;-66
2023/11/17 06:26:45;;;;;;;0.93;0.60;;;19.70;60.20;;;;;;5020561;28;20506;-67
2023/11/17 06:29:14;;;;;;;0.65;0.50;;;19.70;60.20;;;;;;5020086;28;20041;-66
2023/11/17 06:31:43;;;;;;;0.98;0.50;;;19.70;60.30;;;;;;5016630;28;20046;-68
2023/11/17 06:34:09;;;;;;;1.00;0.52;;;19.80;60.40;;;;;;5017755;28;20068;-65
2023/11/17 06:36:37;;;;;;;1.23;0.40;;;19.80;61.10;;;;;;5021286;28;20459;-66
2023/11/17 06:39:13;;;;;;;1.27;0.57;;;19.80;60.70;;;;;;5020371;28;20418;-65
2023/11/17 06:41:43;;;;;;;0.90;0.50;;;19.90;60.70;;;;;;5020687;28;20472;-65
2023/11/17 06:44:10;;;;;;;1.00;0.60;;;20.00;60.20;;;;;;5022452;28;20043;-66
2023/11/17 06:46:37;;;;;;;0.73;0.50;;;20.10;60.40;;;;;;5019034;28;20108;-69
2023/11/17 06:49:04;;;;;;;0.68;0.50;;;20.20;60.00;;;;;;5021961;28;20027;-67
2023/11/17 06:51:33;;;;;;;0.57;0.50;;;20.30;59.90;;;;;;5016668;28;20097;-66
2023/11/17 06:53:59;;;;;;;0.73;0.57;;;20.40;59.80;;;;;;5017571;28;20053;-69
2023/11/17 06:56:25;;;;;;;0.60;0.40;;;20.50;59.60;;;;;;5019636;28;20065;-67
2023/11/17 06:58:51;;;;;;;0.85;0.40;;;20.60;58.90;;;;;;5020865;28;20478;-66
2023/11/17 07:01:18;;;;;;;1.17;0.60;;;20.60;58.60;;;;;;5018315;28;20109;-66
2023/11/17 07:03:44;;;;;;;0.57;0.45;;;20.70;59.20;;;;;;5021158;28;20090;-65
2023/11/17 07:06:11;;;;;;;1.00;0.50;;;20.80;58.80;;;;;;5018949;28;20098;-65
2023/11/17 07:08:37;;;;;;;0.82;0.50;;;21.00;58.20;;;;;;5018018;28;20044;-65
2023/11/17 07:11:05;;;;;;;0.70;0.50;;;21.20;57.90;;;;;;5018080;28;20879;-66
2023/11/17 07:13:32;;;;;;;0.90;0.57;;;21.30;57.50;;;;;;5020282;28;20469;-67
2023/11/17 07:15:58;;;;;;;0.82;0.50;;;21.40;57.20;;;;;;5016716;28;20120;-68
2023/11/17 07:18:23;;;;;;;1.15;0.50;;;21.50;56.90;;;;;;5002202;28;20125;-71
2023/11/17 07:20:49;;;;;;;0.57;0.40;;;21.60;56.70;;;;;;5020151;28;20450;-70
2023/11/17 07:23:14;;;;;;;0.73;0.60;;;21.70;56.60;;;;;;5019929;28;20079;-69
2023/11/17 07:25:45;;;;;;;0.40;0.30;;;21.70;56.50;;;;;;5021520;28;20035;-71
2023/11/17 07:28:12;;;;;;;0.80;0.60;;;21.80;56.50;;;;;;5019735;28;20024;-71
2023/11/17 07:30:40;;;;;;;1.23;0.50;;;21.80;56.40;;;;;;5018949;28;20028;-71
2023/11/17 07:33:09;;;;;;;0.80;0.60;;;21.90;56.30;;;;;;5021119;28;20038;-72
2023/11/17 07:35:35;;;;;;;0.50;0.40;;;21.90;56.20;;;;;;5018961;28;20429;-72
2023/11/17 07:38:05;;;;;;;0.65;0.60;;;21.90;56.00;;;;;;5036090;28;20041;-73
2023/11/17 07:40:31;;;;;;;0.77;0.60;;;22.00;56.00;;;;;;5020170;28;20090;-71
2023/11/17 07:42:56;;;;;;;0.73;0.50;;;21.90;55.90;;;;;;5017187;28;20125;-71
2023/11/17 07:45:22;;;;;;;0.77;0.50;;;21.90;56.60;;;;;;5017844;28;20026;-71
2023/11/17 07:47:48;;;;;;;0.65;0.40;;;21.90;56.00;;;;;;5020684;28;20029;-72
2023/11/17 07:50:14;;;;;;;1.25;0.50;;;21.90;56.20;;;;;;5020556;28;20057;-72
2023/11/17 07:52:44;;;;;;;1.25;0.70;;;21.90;56.10;;;;;;5019787;28;20057;-73
2023/11/17 07:55:10;;;;;;;;;;;21.90;56.20;;;;;;5016655;28;20342;-72
2023/11/17 07:57:40;;;;;;;1.17;0.60;;;21.90;56.10;;;;;;5016241;28;20245;-71
2023/11/17 08:00:17;;;;;;;1.88;0.55;;;21.90;56.00;;;;;;5019396;28;20072;-72
2023/11/17 08:02:43;;;;;;;0.60;0.50;;;21.90;55.90;;;;;;5016703;28;20041;-69
2023/11/17 08:05:10;;;;;;;0.40;0.40;;;21.90;56.20;;;;;;5012433;28;20056;-72
2023/11/17 08:07:36;;;;;;;0.80;0.50;;;21.90;56.10;;;;;;5017691;28;20116;-72
2023/11/17 08:10:06;;;;;;;0.90;0.55;;;21.90;56.20;;;;;;5017448;28;20394;-71
2023/11/17 08:12:32;;;;;;;3.83;0.50;;;21.90;56.10;;;;;;5017277;28;20475;-70
2023/11/17 08:14:58;;;;;;;0.40;0.40;;;21.90;56.20;;;;;;5018254;28;20069;-71
2023/11/17 08:17:24;;;;;;;1.13;0.50;;;21.90;56.20;;;;;;5017041;28;20500;-70
2023/11/17 08:19:50;;;;;;;0.50;0.50;;;21.90;56.00;;;;;;5018094;28;20390;-72
2023/11/17 08:22:16;;;;;;;1.77;0.47;;;21.90;55.90;;;;;;5018677;28;20366;-72
2023/11/17 08:24:42;;;;;;;0.93;0.60;;;21.90;56.00;;;;;;5031800;28;20037;-70
2023/11/17 08:27:08;;;;;;;1.13;0.50;;;21.90;56.00;;;;;;5019302;28;20033;-71
2023/11/17 08:29:33;;;;;;;0.98;0.57;;;21.90;56.10;;;;;;5001657;28;20474;-68
2023/11/17 08:31:59;;;;;;;1.45;0.50;;;21.90;56.30;;;;;;5017589;28;20021;-68
2023/11/17 08:34:25;;;;;;;0.95;0.50;;;21.90;56.30;;;;;;5017733;28;20029;-67
2023/11/17 08:36:51;;;;;;;1.52;0.65;;;21.90;57.00;;;;;;5017711;28;20030;-69
2023/11/17 08:39:25;;;;;;;1.85;0.40;;;21.90;56.80;;;;;;5002405;28;20033;-69
2023/11/17 08:41:54;;;;;;;0.80;0.45;;;21.90;56.60;;;;;;5019589;28;20072;-69
2023/11/17 08:44:20;;;;;;;1.17;0.55;;;21.90;56.60;;;;;;5017453;28;20112;-70
2023/11/17 08:46:46;;;;;;;0.43;0.43;;;21.90;56.50;;;;;;5017046;28;20441;-67
2023/11/17 08:49:12;;;;;;;0.65;0.40;;;21.90;56.40;;;;;;5018354;28;20131;-65
2023/11/17 08:51:41;;;;;;;0.47;0.40;;;21.90;56.30;;;;;;5016936;28;20057;-66
2023/11/17 08:54:07;;;;;;;0.43;0.43;;;21.90;56.70;;;;;;5019231;28;20212;-68
2023/11/17 08:56:35;;;;;;;1.73;0.40;;;21.90;57.50;;;;;;5017217;28;20480;-67
2023/11/17 08:59:02;;;;;;;2.40;0.50;;;22.00;58.40;;;;;;5016309;28;20366;-68
2023/11/17 09:01:28;;;;;;;0.73;0.50;;;22.00;58.70;;;;;;5017074;28;20465;-68
2023/11/17 09:03:54;;;;;;;0.70;0.52;;;22.10;58.00;;;;;;5018818;28;20108;-68
2023/11/17 09:06:19;;;;;;;0.95;0.45;;;22.10;58.90;;;;;;5017351;28;20112;-68
2023/11/17 09:08:46;;;;;;;0.40;0.35;;;22.10;58.80;;;;;;5009493;28;20507;-71
2023/11/17 09:11:12;;;;;;;2.30;0.65;;;22.10;58.50;;;;;;5018088;28;20387;-69
2023/11/17 09:13:39;;;;;;;0.43;0.40;;;22.10;59.10;;;;;;5016955;28;20064;-67
2023/11/17 09:16:07;;;;;;;1.15;0.50;;;22.10;59.30;;;;;;5015030;28;20499;-68
2023/11/17 09:18:32;;;;;;;0.68;0.50;;;22.20;59.60;;;;;;5018647;28;20076;-69
2023/11/17 09:20:58;;;;;;;1.10;0.50;;;22.20;59.70;;;;;;5020833;28;20033;-68
2023/11/17 09:23:25;;;;;;;1.10;0.50;;;22.20;59.40;;;;;;5016860;28;20028;-66
2023/11/17 09:25:51;;;;;;;0.82;0.40;;;22.20;58.30;;;;;;5017504;28;20109;-66
2023/11/17 09:28:17;;;;;;;0.68;0.52;;;22.20;56.60;;;;;;5022470;28;20022;-67
2023/11/17 09:30:43;;;;;;;0.77;0.50;;;22.20;56.10;;;;;;5021387;28;20034;-66
2023/11/17 09:33:09;;;;;;;0.95;0.55;;;22.20;55.70;;;;;;5020978;28;20056;-66
2023/11/17 09:35:36;;;;;;;0.38;0.35;;;22.20;55.60;;;;;;5021678;28;20046;-67
2023/11/17 09:38:04;;;;;;;0.88;0.70;;;22.20;55.50;;;;;;5018255;28;20018;-70
2023/11/17 09:40:33;;;;;;;0.40;0.40;;;22.20;55.40;;;;;;5021217;28;20389;-69
2023/11/17 09:43:20;;;;;;;0.63;0.40;;;22.20;55.30;;;;;;5021190;28;20025;-69
2023/11/17 09:45:47;;;;;;;1.80;0.50;;;22.20;55.50;;;;;;5014367;28;20508;-67
2023/11/17 09:48:14;;;;;;;0.40;0.40;;;22.20;55.60;;;;;;5018666;28;20516;-67
2023/11/17 09:50:45;;;;;;;0.73;0.50;;;22.20;55.40;;;;;;5021594;28;20091;-67
2023/11/17 09:53:14;;;;;;;1.20;0.43;;;22.10;55.20;;;;;;5021152;28;20490;-67
2023/11/17 09:55:42;;;;;;;1.52;0.60;;;22.10;55.20;;;;;;5023006;28;20064;-67
2023/11/17 09:58:09;;;;;;;0.95;0.47;;;22.10;55.20;;;;;;5019891;28;20474;-67
2023/11/17 10:00:41;;;;;;;0.80;0.50;;;22.10;55.20;;;;;;5022862;28;20589;-67
2023/11/17 10:03:09;;;;;;;1.15;0.40;;;22.10;55.20;;;;;;5020299;28;20427;-67
2023/11/17 10:05:36;;;;;;;1.10;0.70;;;22.10;55.20;;;;;;5017900;28;20102;-68
2023/11/17 10:08:07;;;;;;;2.28;0.60;;;22.10;55.10;;;;;;5023053;28;20068;-68
2023/11/17 10:10:38;;;;;;;1.30;0.60;;;22.10;55.40;;;;;;5018101;28;20041;-68
2023/11/17 10:13:11;;;;;;;1.65;0.63;;;22.00;55.40;;;;;;5021187;28;20584;-68
2023/11/17 10:15:44;;;;;;;1.15;0.60;;;22.00;55.40;;;;;;5021623;28;20554;-68
2023/11/17 10:18:15;;;;;;;0.85;0.50;;;22.00;55.20;;;;;;5003357;28;20030;-67
2023/11/17 10:20:42;;;;;;;0.85;0.50;;;22.10;55.20;;;;;;5036773;28;20042;-68
2023/11/17 10:23:07;;;;;;;0.80;0.50;;;22.00;55.20;;;;;;5020263;28;20026;-68
2023/11/17 10:25:34;;;;;;;2.47;0.60;;;22.00;55.20;;;;;;5020845;28;20038;-68
2023/11/17 10:28:04;;;;;;;0.95;0.50;;;22.10;55.30;;;;;;5020667;28;20409;-69
2023/11/17 10:30:34;;;;;;;0.75;0.52;;;22.00;55.30;;;;;;5021764;28;20494;-68
2023/11/17 10:33:32;;;;;;;0.70;0.60;;;22.00;55.30;;;;;;5019226;28;20022;-67
2023/11/17 10:36:10;;;;;;;0.80;0.60;;;22.00;55.30;;;;;;5021144;28;20033;-67
2023/11/17 10:38:38;;;;;;;1.60;0.60;;;22.10;55.30;;;;;;5020581;28;20343;-67
2023/11/17 10:41:33;;;;;;;0.77;0.60;;;22.00;55.20;;;;;;5020791;28;20026;-70
2023/11/17 10:44:08;;;;;;;1.77;0.70;;;22.00;55.10;;;;;;5020628;28;20112;-68
2023/11/17 10:46:47;;;;;;;1.02;0.60;;;22.00;55.20;;;;;;5020015;28;20045;-68
2023/11/17 10:49:19;;;;;;;1.35;0.70;;;22.00;55.20;;;;;;5020132;28;20046;-68
2023/11/17 10:51:52;;;;;;;1.70;0.63;;;22.00;55.20;;;;;;5018272;28;20034;-69
2023/11/17 10:54:18;;;;;;;1.08;0.60;;;22.00;55.20;;;;;;5020858;28;20064;-68
2023/11/17 10:56:47;;;;;;;1.05;0.60;;;22.00;55.30;;;;;;5017328;28;20374;-67
2023/11/17 10:59:18;;;;;;;1.10;0.63;;;22.00;55.20;;;;;;5033031;28;20032;-67
2023/11/17 11:01:45;;;;;;;1.05;0.60;;;22.00;55.20;;;;;;5019358;28;20384;-71
2023/11/17 11:04:25;;;;;;;2.67;0.70;;;22.00;55.20;;;;;;5021163;28;20128;-68
2023/11/17 11:07:00;;;;;;;1.77;0.60;;;22.00;55.30;;;;;;5036937;28;20426;-70
2023/11/17 11:09:35;;;;;;;1.85;0.60;;;22.00;55.30;;;;;;5021089;28;20022;-69
2023/11/17 11:12:06;;;;;;;1.90;0.70;;;22.00;55.20;;;;;;5021990;28;20503;-69
2023/11/17 11:14:32;;;;;;;1.25;0.60;;;22.00;55.20;;;;;;4998213;28;20032;-70
2023/11/17 11:16:58;;;;;;;1.67;0.80;;;22.00;55.10;;;;;;5012959;28;20335;-71
2023/11/17 11:19:28;;;;;;;0.57;0.50;;;22.00;55.20;;;;;;5019558;28;20030;-69
2023/11/17 11:22:00;;;;;;;1.02;0.70;;;22.00;55.20;;;;;;5034633;28;20395;-69
2023/11/17 11:24:28;;;;;;;0.88;0.60;;;22.00;55.20;;;;;;5018274;28;20088;-68
2023/11/17 11:26:55;;;;;;;1.98;0.70;;;22.00;55.20;;;;;;5019956;28;20025;-68
2023/11/17 11:29:22;;;;;;;1.58;0.70;;;22.00;55.20;;;;;;5019686;28;20091;-68
2023/11/17 11:31:49;;;;;;;0.75;0.60;;;22.00;55.20;;;;;;5018904;28;20398;-68
2023/11/17 11:34:15;;;;;;;1.58;0.60;;;21.90;55.20;;;;;;5016751;28;20041;-68
2023/11/17 11:36:41;;;;;;;1.08;0.63;;;21.90;55.20;;;;;;5019532;28;20034;-68
2023/11/17 11:39:06;;;;;;;0.68;0.50;;;22.00;55.30;;;;;;5016572;28;20021;-67
2023/11/17 11:41:34;;;;;;;1.73;0.60;;;21.90;55.20;;;;;;5021397;28;20111;-68
2023/11/17 11:44:00;;;;;;;1.85;0.80;;;21.90;55.20;;;;;;5019756;28;20066;-67
2023/11/17 11:46:28;;;;;;;1.27;0.70;;;21.90;55.20;;;;;;5015887;28;20619;-66
2023/11/17 11:49:00;;;;;;;1.63;0.73;;;21.90;55.20;;;;;;5015832;28;20537;-67
2023/11/17 11:51:31;;;;;;;1.20;0.80;;;21.90;55.20;;;;;;5018225;28;20038;-67
2023/11/17 11:53:58;;;;;;;0.85;0.60;;;21.90;55.20;;;;;;5019567;28;20648;-67
2023/11/17 11:56:49;;;;;;;0.75;0.60;;;21.90;55.20;;;;;;5018207;28;20117;-66
2023/11/17 11:59:15;;;;;;;2.78;0.73;;;21.90;55.20;;;;;;5017904;28;20037;-66
2023/11/17 12:01:47;;;;;;;1.20;0.60;;;21.90;55.10;;;;;;5019977;28;20033;-67
2023/11/17 12:04:12;;;;;;;1.13;0.60;;;21.90;55.10;;;;;;5016040;28;20021;-68
2023/11/17 12:06:40;;;;;;;1.20;0.70;;;21.90;55.10;;;;;;5019846;28;20094;-67
2023/11/17 12:09:16;;;;;;;1.52;0.80;;;21.90;55.10;;;;;;5020243;28;20018;-70
2023/11/17 12:11:45;;;;;;;1.55;0.88;;;21.90;55.10;;;;;;5019446;28;20489;-70
2023/11/17 12:14:15;;;;;;;1.13;0.70;;;21.90;55.10;;;;;;5019136;28;20492;-69
2023/11/17 12:16:53;;;;;;;1.50;0.80;;;21.90;55.10;;;;;;5035051;28;20045;-70
2023/11/17 12:19:21;;;;;;;1.20;0.75;;;21.90;55.10;;;;;;5016677;28;20022;-69
2023/11/17 12:21:49;;;;;;;0.65;0.60;;;21.90;55.10;;;;;;5019155;28;20025;-69
2023/11/17 12:24:25;;;;;;;1.50;0.80;;;21.90;55.00;;;;;;5019323;28;20489;-68
2023/11/17 12:26:56;;;;;;;1.83;0.80;;;21.90;55.00;;;;;;5018582;28;20109;-68
2023/11/17 12:29:23;;;;;;;0.98;0.70;;;21.90;55.00;;;;;;5016905;28;20096;-71
2023/11/17 12:31:49;;;;;;;1.65;0.80;;;21.90;55.10;;;;;;5017063;28;20097;-70
2023/11/17 12:34:15;;;;;;;1.83;0.70;;;21.90;55.00;;;;;;4998589;28;20034;-69
2023/11/17 12:36:41;;;;;;;0.88;0.47;;;21.90;55.00;;;;;;5002005;28;20223;-68
2023/11/17 12:39:08;;;;;;;0.77;0.55;;;21.90;55.20;;;;;;5019276;28;20030;-69
2023/11/17 12:41:35;;;;;;;1.60;0.75;;;21.90;55.20;;;;;;5019568;28;20288;-69
2023/11/17 12:44:01;;;;;;;1.55;0.70;;;21.90;55.20;;;;;;5019516;28;20033;-68
2023/11/17 12:46:29;;;;;;;1.00;0.65;;;21.90;55.40;;;;;;5019513;28;20030;-69
2023/11/17 12:48:58;;;;;;;0.90;0.63;;;21.90;55.30;;;;;;5015892;28;20099;-69
2023/11/17 12:51:30;;;;;;;2.70;0.70;;;21.90;55.30;;;;;;5017940;28;20044;-69
2023/11/17 12:54:00;;;;;;;1.15;0.63;;;21.90;55.20;;;;;;5019906;28;20033;-68